sensor_id;sensor_type;location;lat;lon;timestamp;P1;durP1;ratioP1;P2;durP2;ratioP2
353;SDS011;165;53.592;10.044;2023-04-01T00:00:14;11.73;;;5.77;;
353;SDS011;165;53.592;10.044;2023-04-01T00:02:40;9.13;;;6.80;;
353;SDS011;165;53.592;10.044;2023-04-01T00:05:06;7.20;;;5.60;;
353;SDS011;165;53.592;10.044;2023-04-01T00:07:32;12.53;;;5.87;;
353;SDS011;165;53.592;10.044;2023-04-01T00:09:57;8.63;;;5.47;;
353;SDS011;165;53.592;10.044;2023-04-01T00:12:23;8.50;;;5.83;;
353;SDS011;165;53.592;10.044;2023-04-01T00:14:48;7.73;;;5.20;;
353;SDS011;165;53.592;10.044;2023-04-01T00:17:13;9.73;;;5.57;;
353;SDS011;165;53.592;10.044;2023-04-01T00:19:39;7.57;;;5.77;;
353;SDS011;165;53.592;10.044;2023-04-01T00:22:04;9.87;;;5.30;;
353;SDS011;165;53.592;10.044;2023-04-01T00:24:30;9.43;;;5.13;;
353;SDS011;165;53.592;10.044;2023-04-01T00:26:55;11.10;;;5.40;;
353;SDS011;165;53.592;10.044;2023-04-01T00:29:21;7.63;;;6.10;;
353;SDS011;165;53.592;10.044;2023-04-01T00:31:46;11.20;;;5.60;;
353;SDS011;165;53.592;10.044;2023-04-01T00:34:12;7.97;;;5.40;;
353;SDS011;165;53.592;10.044;2023-04-01T00:36:37;8.80;;;6.10;;
353;SDS011;165;53.592;10.044;2023-04-01T00:39:03;10.07;;;5.30;;
353;SDS011;165;53.592;10.044;2023-04-01T00:41:28;10.43;;;6.00;;
353;SDS011;165;53.592;10.044;2023-04-01T00:44:11;10.70;;;6.10;;
353;SDS011;165;53.592;10.044;2023-04-01T00:46:47;8.57;;;5.30;;
353;SDS011;165;53.592;10.044;2023-04-01T00:49:14;9.87;;;5.27;;
353;SDS011;165;53.592;10.044;2023-04-01T00:51:42;10.40;;;6.20;;
353;SDS011;165;53.592;10.044;2023-04-01T00:54:10;10.87;;;4.90;;
353;SDS011;165;53.592;10.044;2023-04-01T00:56:37;9.20;;;5.80;;
353;SDS011;165;53.592;10.044;2023-04-01T00:59:11;8.70;;;5.57;;
353;SDS011;165;53.592;10.044;2023-04-01T01:01:40;8.60;;;5.70;;
353;SDS011;165;53.592;10.044;2023-04-01T01:04:06;8.47;;;5.30;;
353;SDS011;165;53.592;10.044;2023-04-01T01:06:44;6.73;;;5.70;;
353;SDS011;165;53.592;10.044;2023-04-01T01:09:20;13.50;;;6.37;;
353;SDS011;165;53.592;10.044;2023-04-01T01:14:46;9.00;;;5.90;;
353;SDS011;165;53.592;10.044;2023-04-01T01:17:44;10.27;;;7.40;;
353;SDS011;165;53.592;10.044;2023-04-01T01:23:14;13.80;;;7.23;;
353;SDS011;165;53.592;10.044;2023-04-01T01:32:05;9.77;;;5.13;;
353;SDS011;165;53.592;10.044;2023-04-01T01:34:40;10.27;;;5.50;;
353;SDS011;165;53.592;10.044;2023-04-01T01:37:18;8.80;;;5.77;;
353;SDS011;165;53.592;10.044;2023-04-01T01:39:50;15.63;;;5.50;;
353;SDS011;165;53.592;10.044;2023-04-01T01:42:20;8.90;;;5.63;;
353;SDS011;165;53.592;10.044;2023-04-01T01:44:49;8.80;;;5.47;;
353;SDS011;165;53.592;10.044;2023-04-01T01:47:17;12.33;;;6.43;;
353;SDS011;165;53.592;10.044;2023-04-01T01:49:44;9.37;;;6.27;;
353;SDS011;165;53.592;10.044;2023-04-01T01:52:11;9.83;;;5.60;;
353;SDS011;165;53.592;10.044;2023-04-01T01:54:46;10.13;;;5.63;;
353;SDS011;165;53.592;10.044;2023-04-01T01:57:16;8.07;;;6.10;;
353;SDS011;165;53.592;10.044;2023-04-01T01:59:43;7.10;;;5.50;;
353;SDS011;165;53.592;10.044;2023-04-01T02:02:13;8.50;;;5.20;;
353;SDS011;165;53.592;10.044;2023-04-01T02:04:40;7.80;;;5.60;;
353;SDS011;165;53.592;10.044;2023-04-01T02:07:10;9.40;;;5.57;;
353;SDS011;165;53.592;10.044;2023-04-01T02:09:43;10.97;;;5.93;;
353;SDS011;165;53.592;10.044;2023-04-01T02:12:09;8.73;;;5.37;;
353;SDS011;165;53.592;10.044;2023-04-01T02:14:39;10.97;;;5.17;;
353;SDS011;165;53.592;10.044;2023-04-01T02:17:26;9.50;;;5.67;;
353;SDS011;165;53.592;10.044;2023-04-01T02:20:04;8.93;;;6.20;;
353;SDS011;165;53.592;10.044;2023-04-01T02:22:53;8.10;;;5.57;;
353;SDS011;165;53.592;10.044;2023-04-01T02:25:21;7.13;;;5.10;;
353;SDS011;165;53.592;10.044;2023-04-01T02:27:50;8.30;;;5.40;;
353;SDS011;165;53.592;10.044;2023-04-01T02:30:16;7.27;;;5.90;;
353;SDS011;165;53.592;10.044;2023-04-01T02:32:42;9.07;;;5.03;;
353;SDS011;165;53.592;10.044;2023-04-01T02:35:09;9.83;;;5.60;;
353;SDS011;165;53.592;10.044;2023-04-01T02:37:39;9.50;;;5.73;;
353;SDS011;165;53.592;10.044;2023-04-01T02:40:05;10.43;;;6.30;;
353;SDS011;165;53.592;10.044;2023-04-01T02:42:32;7.43;;;6.20;;
353;SDS011;165;53.592;10.044;2023-04-01T02:44:58;12.90;;;6.40;;
353;SDS011;165;53.592;10.044;2023-04-01T02:47:23;13.70;;;7.30;;
353;SDS011;165;53.592;10.044;2023-04-01T02:49:49;12.30;;;6.27;;
353;SDS011;165;53.592;10.044;2023-04-01T02:52:14;9.70;;;5.80;;
353;SDS011;165;53.592;10.044;2023-04-01T02:54:40;8.37;;;7.30;;
353;SDS011;165;53.592;10.044;2023-04-01T02:57:05;11.27;;;7.03;;
353;SDS011;165;53.592;10.044;2023-04-01T02:59:31;11.80;;;6.93;;
353;SDS011;165;53.592;10.044;2023-04-01T03:01:56;10.63;;;7.40;;
353;SDS011;165;53.592;10.044;2023-04-01T03:04:22;10.60;;;6.80;;
353;SDS011;165;53.592;10.044;2023-04-01T03:06:47;10.53;;;7.23;;
353;SDS011;165;53.592;10.044;2023-04-01T03:09:13;12.77;;;8.00;;
353;SDS011;165;53.592;10.044;2023-04-01T03:11:38;16.20;;;8.10;;
353;SDS011;165;53.592;10.044;2023-04-01T03:14:04;11.50;;;8.37;;
353;SDS011;165;53.592;10.044;2023-04-01T03:16:29;14.20;;;7.90;;
353;SDS011;165;53.592;10.044;2023-04-01T03:18:55;15.10;;;7.53;;
353;SDS011;165;53.592;10.044;2023-04-01T03:21:21;15.67;;;8.40;;
353;SDS011;165;53.592;10.044;2023-04-01T03:23:48;15.83;;;8.10;;
353;SDS011;165;53.592;10.044;2023-04-01T03:26:13;13.00;;;7.70;;
353;SDS011;165;53.592;10.044;2023-04-01T03:28:40;11.60;;;7.80;;
353;SDS011;165;53.592;10.044;2023-04-01T03:31:05;13.57;;;8.13;;
353;SDS011;165;53.592;10.044;2023-04-01T03:33:31;14.07;;;8.80;;
353;SDS011;165;53.592;10.044;2023-04-01T03:35:57;12.80;;;8.50;;
353;SDS011;165;53.592;10.044;2023-04-01T03:38:22;11.27;;;7.17;;
353;SDS011;165;53.592;10.044;2023-04-01T03:40:48;13.83;;;8.50;;
353;SDS011;165;53.592;10.044;2023-04-01T03:43:13;14.50;;;8.93;;
353;SDS011;165;53.592;10.044;2023-04-01T03:45:45;16.60;;;9.30;;
353;SDS011;165;53.592;10.044;2023-04-01T03:48:15;10.77;;;7.97;;
353;SDS011;165;53.592;10.044;2023-04-01T03:50:41;13.37;;;7.63;;
353;SDS011;165;53.592;10.044;2023-04-01T03:53:07;11.63;;;7.83;;
353;SDS011;165;53.592;10.044;2023-04-01T03:55:35;13.57;;;9.77;;
353;SDS011;165;53.592;10.044;2023-04-01T03:58:00;15.27;;;8.17;;
353;SDS011;165;53.592;10.044;2023-04-01T04:00:26;11.30;;;8.10;;
353;SDS011;165;53.592;10.044;2023-04-01T04:02:51;12.47;;;8.60;;
353;SDS011;165;53.592;10.044;2023-04-01T04:05:17;12.03;;;8.73;;
353;SDS011;165;53.592;10.044;2023-04-01T04:07:42;11.70;;;8.20;;
353;SDS011;165;53.592;10.044;2023-04-01T04:10:08;14.10;;;9.00;;
353;SDS011;165;53.592;10.044;2023-04-01T04:12:33;12.03;;;9.00;;
353;SDS011;165;53.592;10.044;2023-04-01T04:14:59;16.67;;;9.57;;
353;SDS011;165;53.592;10.044;2023-04-01T04:17:24;12.73;;;8.77;;
353;SDS011;165;53.592;10.044;2023-04-01T04:19:50;15.70;;;8.47;;
353;SDS011;165;53.592;10.044;2023-04-01T04:22:15;12.67;;;9.20;;
353;SDS011;165;53.592;10.044;2023-04-01T04:24:41;16.57;;;9.80;;
353;SDS011;165;53.592;10.044;2023-04-01T04:27:06;12.53;;;9.63;;
353;SDS011;165;53.592;10.044;2023-04-01T04:29:32;16.00;;;10.10;;
353;SDS011;165;53.592;10.044;2023-04-01T04:31:57;14.63;;;9.43;;
353;SDS011;165;53.592;10.044;2023-04-01T04:34:22;13.70;;;10.07;;
353;SDS011;165;53.592;10.044;2023-04-01T04:36:48;14.53;;;9.17;;
353;SDS011;165;53.592;10.044;2023-04-01T04:39:14;13.73;;;8.67;;
353;SDS011;165;53.592;10.044;2023-04-01T04:41:40;12.63;;;9.70;;
353;SDS011;165;53.592;10.044;2023-04-01T04:44:05;12.00;;;8.20;;
353;SDS011;165;53.592;10.044;2023-04-01T04:46:31;13.10;;;10.23;;
353;SDS011;165;53.592;10.044;2023-04-01T04:48:56;15.97;;;10.20;;
353;SDS011;165;53.592;10.044;2023-04-01T04:51:22;15.23;;;9.47;;
353;SDS011;165;53.592;10.044;2023-04-01T04:53:48;16.37;;;11.97;;
353;SDS011;165;53.592;10.044;2023-04-01T04:56:17;14.43;;;9.40;;
353;SDS011;165;53.592;10.044;2023-04-01T04:58:43;16.53;;;9.80;;
353;SDS011;165;53.592;10.044;2023-04-01T05:01:09;15.40;;;10.07;;
353;SDS011;165;53.592;10.044;2023-04-01T05:03:36;13.87;;;9.27;;
353;SDS011;165;53.592;10.044;2023-04-01T05:06:02;13.23;;;9.87;;
353;SDS011;165;53.592;10.044;2023-04-01T05:08:28;13.97;;;9.77;;
353;SDS011;165;53.592;10.044;2023-04-01T05:10:54;14.73;;;9.33;;
353;SDS011;165;53.592;10.044;2023-04-01T05:13:20;13.43;;;9.37;;
353;SDS011;165;53.592;10.044;2023-04-01T05:15:46;9.80;;;8.40;;
353;SDS011;165;53.592;10.044;2023-04-01T05:18:11;5.23;;;3.90;;
353;SDS011;165;53.592;10.044;2023-04-01T05:20:37;3.20;;;2.23;;
353;SDS011;165;53.592;10.044;2023-04-01T05:23:02;3.53;;;1.27;;
353;SDS011;165;53.592;10.044;2023-04-01T05:25:28;2.10;;;1.67;;
353;SDS011;165;53.592;10.044;2023-04-01T05:27:53;2.87;;;2.03;;
353;SDS011;165;53.592;10.044;2023-04-01T05:30:19;3.73;;;1.57;;
353;SDS011;165;53.592;10.044;2023-04-01T05:32:45;2.03;;;1.90;;
353;SDS011;165;53.592;10.044;2023-04-01T05:35:10;3.57;;;1.83;;
353;SDS011;165;53.592;10.044;2023-04-01T05:37:36;7.23;;;2.37;;
353;SDS011;165;53.592;10.044;2023-04-01T05:40:02;4.40;;;2.57;;
353;SDS011;165;53.592;10.044;2023-04-01T05:42:28;2.80;;;1.90;;
353;SDS011;165;53.592;10.044;2023-04-01T05:44:54;6.00;;;1.90;;
353;SDS011;165;53.592;10.044;2023-04-01T05:47:19;2.70;;;1.80;;
353;SDS011;165;53.592;10.044;2023-04-01T05:49:45;2.60;;;1.70;;
353;SDS011;165;53.592;10.044;2023-04-01T05:52:10;2.53;;;1.77;;
353;SDS011;165;53.592;10.044;2023-04-01T05:54:36;2.43;;;2.00;;
353;SDS011;165;53.592;10.044;2023-04-01T05:57:01;3.93;;;1.80;;
353;SDS011;165;53.592;10.044;2023-04-01T05:59:27;2.53;;;1.93;;
353;SDS011;165;53.592;10.044;2023-04-01T06:01:52;3.73;;;2.40;;
353;SDS011;165;53.592;10.044;2023-04-01T06:04:18;2.50;;;1.90;;
353;SDS011;165;53.592;10.044;2023-04-01T06:06:44;3.27;;;2.33;;
353;SDS011;165;53.592;10.044;2023-04-01T06:09:13;3.00;;;2.80;;
353;SDS011;165;53.592;10.044;2023-04-01T06:14:48;3.20;;;2.67;;
353;SDS011;165;53.592;10.044;2023-04-01T06:23:17;4.00;;;3.20;;
353;SDS011;165;53.592;10.044;2023-04-01T06:28:36;2.83;;;2.40;;
353;SDS011;165;53.592;10.044;2023-04-01T06:37:14;2.70;;;2.10;;
353;SDS011;165;53.592;10.044;2023-04-01T06:40:12;2.67;;;1.90;;
353;SDS011;165;53.592;10.044;2023-04-01T06:43:31;3.17;;;1.37;;
353;SDS011;165;53.592;10.044;2023-04-01T06:46:11;2.20;;;1.50;;
353;SDS011;165;53.592;10.044;2023-04-01T06:49:04;2.73;;;1.97;;
353;SDS011;165;53.592;10.044;2023-04-01T06:54:31;2.80;;;1.67;;
353;SDS011;165;53.592;10.044;2023-04-01T06:57:05;2.20;;;1.90;;
353;SDS011;165;53.592;10.044;2023-04-01T06:59:54;2.90;;;1.53;;
353;SDS011;165;53.592;10.044;2023-04-01T07:02:36;2.93;;;1.87;;
353;SDS011;165;53.592;10.044;2023-04-01T07:05:10;3.13;;;1.80;;
353;SDS011;165;53.592;10.044;2023-04-01T07:07:41;1.50;;;1.43;;
353;SDS011;165;53.592;10.044;2023-04-01T07:10:11;1.20;;;1.00;;
353;SDS011;165;53.592;10.044;2023-04-01T07:12:44;1.60;;;1.43;;
353;SDS011;165;53.592;10.044;2023-04-01T07:15:16;3.40;;;1.60;;
353;SDS011;165;53.592;10.044;2023-04-01T07:18:05;2.20;;;1.50;;
353;SDS011;165;53.592;10.044;2023-04-01T07:20:38;1.50;;;1.27;;
353;SDS011;165;53.592;10.044;2023-04-01T07:23:05;2.93;;;1.37;;
353;SDS011;165;53.592;10.044;2023-04-01T07:25:36;2.00;;;1.37;;
353;SDS011;165;53.592;10.044;2023-04-01T07:28:11;2.63;;;1.50;;
353;SDS011;165;53.592;10.044;2023-04-01T07:36:39;1.93;;;1.40;;
353;SDS011;165;53.592;10.044;2023-04-01T07:45:03;3.27;;;2.20;;
353;SDS011;165;53.592;10.044;2023-04-01T07:47:52;2.30;;;1.10;;
353;SDS011;165;53.592;10.044;2023-04-01T07:51:07;2.20;;;1.80;;
353;SDS011;165;53.592;10.044;2023-04-01T07:54:02;2.00;;;1.67;;
353;SDS011;165;53.592;10.044;2023-04-01T07:56:51;3.70;;;1.53;;
353;SDS011;165;53.592;10.044;2023-04-01T08:00:11;1.50;;;1.30;;
353;SDS011;165;53.592;10.044;2023-04-01T08:04:59;2.10;;;1.47;;
353;SDS011;165;53.592;10.044;2023-04-01T08:07:41;3.20;;;1.47;;
353;SDS011;165;53.592;10.044;2023-04-01T08:13:00;1.80;;;1.23;;
353;SDS011;165;53.592;10.044;2023-04-01T08:15:42;3.03;;;1.40;;
353;SDS011;165;53.592;10.044;2023-04-01T08:20:56;1.77;;;1.27;;
353;SDS011;165;53.592;10.044;2023-04-01T08:23:36;1.73;;;1.07;;
353;SDS011;165;53.592;10.044;2023-04-01T08:32:08;2.40;;;1.13;;
353;SDS011;165;53.592;10.044;2023-04-01T08:34:40;1.73;;;1.20;;
353;SDS011;165;53.592;10.044;2023-04-01T08:39:41;1.80;;;1.03;;
353;SDS011;165;53.592;10.044;2023-04-01T08:47:54;2.30;;;1.60;;
353;SDS011;165;53.592;10.044;2023-04-01T08:50:51;1.93;;;1.43;;
353;SDS011;165;53.592;10.044;2023-04-01T08:57:15;2.20;;;1.00;;
353;SDS011;165;53.592;10.044;2023-04-01T08:59:26;1.73;;;1.20;;
353;SDS011;165;53.592;10.044;2023-04-01T09:05:26;1.80;;;1.40;;
353;SDS011;165;53.592;10.044;2023-04-01T09:08:13;4.53;;;1.70;;
353;SDS011;165;53.592;10.044;2023-04-01T09:10:57;1.83;;;1.30;;
353;SDS011;165;53.592;10.044;2023-04-01T09:25:23;1.73;;;1.37;;
353;SDS011;165;53.592;10.044;2023-04-01T09:28:18;1.43;;;1.30;;
353;SDS011;165;53.592;10.044;2023-04-01T09:42:06;1.87;;;1.20;;
353;SDS011;165;53.592;10.044;2023-04-01T09:45:00;1.93;;;1.43;;
353;SDS011;165;53.592;10.044;2023-04-01T09:47:37;2.40;;;1.40;;
353;SDS011;165;53.592;10.044;2023-04-01T09:50:20;1.50;;;1.43;;
353;SDS011;165;53.592;10.044;2023-04-01T10:01:16;3.40;;;1.50;;
353;SDS011;165;53.592;10.044;2023-04-01T10:06:58;1.87;;;1.20;;
353;SDS011;165;53.592;10.044;2023-04-01T10:13:00;2.20;;;1.13;;
353;SDS011;165;53.592;10.044;2023-04-01T10:15:52;2.97;;;1.40;;
353;SDS011;165;53.592;10.044;2023-04-01T10:18:46;1.37;;;1.07;;
353;SDS011;165;53.592;10.044;2023-04-01T10:36:08;2.40;;;0.87;;
353;SDS011;165;53.592;10.044;2023-04-01T10:47:24;2.10;;;1.13;;
353;SDS011;165;53.592;10.044;2023-04-01T10:56:01;1.30;;;0.97;;
353;SDS011;165;53.592;10.044;2023-04-01T11:25:11;2.10;;;1.30;;
353;SDS011;165;53.592;10.044;2023-04-01T11:27:50;2.03;;;1.47;;
353;SDS011;165;53.592;10.044;2023-04-01T11:33:28;2.00;;;1.60;;
353;SDS011;165;53.592;10.044;2023-04-01T11:36:08;1.90;;;1.80;;
353;SDS011;165;53.592;10.044;2023-04-01T11:38:51;2.53;;;1.80;;
